sensor_id;sensor_type;location;lat;lon;timestamp;temperature;humidity
71096;DHT22;58753;49.440;11.126;2023-08-01T00:01:33;16.42;92.34
71096;DHT22;58753;49.440;11.126;2023-08-01T00:04:01;16.48;92.45
71096;DHT22;58753;49.440;11.126;2023-08-01T00:06:31;16.46;92.17
71096;DHT22;58753;49.440;11.126;2023-08-01T00:08:57;16.36;92.06
71096;DHT22;58753;49.440;11.126;2023-08-01T00:11:24;16.29;92.10
71096;DHT22;58753;49.440;11.126;2023-08-01T00:13:50;16.30;92.63
71096;DHT22;58753;49.440;11.126;2023-08-01T00:16:15;16.33;92.68
71096;DHT22;58753;49.440;11.126;2023-08-01T00:18:41;16.39;92.68
71096;DHT22;58753;49.440;11.126;2023-08-01T00:21:06;16.38;92.71
71096;DHT22;58753;49.440;11.126;2023-08-01T00:23:37;16.38;92.60
71096;DHT22;58753;49.440;11.126;2023-08-01T00:26:03;16.38;92.64
71096;DHT22;58753;49.440;11.126;2023-08-01T00:28:32;16.36;92.60
71096;DHT22;58753;49.440;11.126;2023-08-01T00:31:07;16.36;92.81
71096;DHT22;58753;49.440;11.126;2023-08-01T00:33:38;16.33;92.90
71096;DHT22;58753;49.440;11.126;2023-08-01T00:36:03;16.34;92.81
71096;DHT22;58753;49.440;11.126;2023-08-01T00:38:34;16.33;92.79
71096;DHT22;58753;49.440;11.126;2023-08-01T00:41:01;16.32;92.75
71096;DHT22;58753;49.440;11.126;2023-08-01T00:43:29;16.30;93.12
71096;DHT22;58753;49.440;11.126;2023-08-01T00:45:59;16.34;93.00
71096;DHT22;58753;49.440;11.126;2023-08-01T00:48:29;16.32;92.99
71096;DHT22;58753;49.440;11.126;2023-08-01T00:50:55;16.30;92.89
71096;DHT22;58753;49.440;11.126;2023-08-01T00:53:21;16.29;93.01
71096;DHT22;58753;49.440;11.126;2023-08-01T00:55:51;16.29;93.18
71096;DHT22;58753;49.440;11.126;2023-08-01T00:58:17;16.30;93.24
71096;DHT22;58753;49.440;11.126;2023-08-01T01:00:43;16.30;93.12
71096;DHT22;58753;49.440;11.126;2023-08-01T01:03:08;16.30;93.26
71096;DHT22;58753;49.440;11.126;2023-08-01T01:05:36;16.32;93.39
71096;DHT22;58753;49.440;11.126;2023-08-01T01:08:04;16.33;93.41
71096;DHT22;58753;49.440;11.126;2023-08-01T01:10:30;16.30;93.17
71096;DHT22;58753;49.440;11.126;2023-08-01T01:12:56;16.25;93.26
71096;DHT22;58753;49.440;11.126;2023-08-01T01:15:21;16.19;93.30
71096;DHT22;58753;49.440;11.126;2023-08-01T01:17:46;16.13;93.31
71096;DHT22;58753;49.440;11.126;2023-08-01T01:20:14;16.10;93.36
71096;DHT22;58753;49.440;11.126;2023-08-01T01:22:40;16.09;93.43
71096;DHT22;58753;49.440;11.126;2023-08-01T01:25:07;16.09;93.48
71096;DHT22;58753;49.440;11.126;2023-08-01T01:27:37;16.08;93.51
71096;DHT22;58753;49.440;11.126;2023-08-01T01:30:03;16.12;93.69
71096;DHT22;58753;49.440;11.126;2023-08-01T01:32:32;16.10;93.53
71096;DHT22;58753;49.440;11.126;2023-08-01T01:34:58;16.08;93.74
71096;DHT22;58753;49.440;11.126;2023-08-01T01:37:24;16.06;93.61
71096;DHT22;58753;49.440;11.126;2023-08-01T01:39:49;16.09;93.84
71096;DHT22;58753;49.440;11.126;2023-08-01T01:42:17;16.08;93.69
71096;DHT22;58753;49.440;11.126;2023-08-01T01:44:42;16.08;93.70
71096;DHT22;58753;49.440;11.126;2023-08-01T01:47:07;16.09;93.78
71096;DHT22;58753;49.440;11.126;2023-08-01T01:49:33;16.10;93.77
71096;DHT22;58753;49.440;11.126;2023-08-01T01:52:01;16.09;93.80
71096;DHT22;58753;49.440;11.126;2023-08-01T01:54:28;16.10;93.94
71096;DHT22;58753;49.440;11.126;2023-08-01T01:56:56;16.10;93.87
71096;DHT22;58753;49.440;11.126;2023-08-01T01:59:24;16.08;93.73
71096;DHT22;58753;49.440;11.126;2023-08-01T02:01:49;16.10;94.02
71096;DHT22;58753;49.440;11.126;2023-08-01T02:04:14;16.10;93.92
71096;DHT22;58753;49.440;11.126;2023-08-01T02:06:42;16.10;93.91
71096;DHT22;58753;49.440;11.126;2023-08-01T02:09:07;16.10;93.91
71096;DHT22;58753;49.440;11.126;2023-08-01T02:11:33;16.08;93.86
71096;DHT22;58753;49.440;11.126;2023-08-01T02:14:01;16.06;94.06
71096;DHT22;58753;49.440;11.126;2023-08-01T02:16:28;16.05;93.97
71096;DHT22;58753;49.440;11.126;2023-08-01T02:18:53;16.04;94.04
71096;DHT22;58753;49.440;11.126;2023-08-01T02:21:19;16.09;94.24
71096;DHT22;58753;49.440;11.126;2023-08-01T02:23:49;16.10;94.17
71096;DHT22;58753;49.440;11.126;2023-08-01T02:26:14;16.09;94.13
71096;DHT22;58753;49.440;11.126;2023-08-01T02:28:42;16.08;94.16
71096;DHT22;58753;49.440;11.126;2023-08-01T02:31:10;16.08;94.31
71096;DHT22;58753;49.440;11.126;2023-08-01T02:33:36;16.09;94.31
71096;DHT22;58753;49.440;11.126;2023-08-01T02:36:01;16.08;94.26
71096;DHT22;58753;49.440;11.126;2023-08-01T02:38:29;16.08;94.33
71096;DHT22;58753;49.440;11.126;2023-08-01T02:40:56;16.05;94.36
71096;DHT22;58753;49.440;11.126;2023-08-01T02:43:24;16.09;94.43
71096;DHT22;58753;49.440;11.126;2023-08-01T02:45:52;16.09;94.45
71096;DHT22;58753;49.440;11.126;2023-08-01T02:48:20;16.05;94.45
71096;DHT22;58753;49.440;11.126;2023-08-01T02:50:45;16.09;94.52
71096;DHT22;58753;49.440;11.126;2023-08-01T02:53:13;16.15;94.63
71096;DHT22;58753;49.440;11.126;2023-08-01T02:55:39;16.15;94.53
71096;DHT22;58753;49.440;11.126;2023-08-01T02:58:06;16.13;94.50
71096;DHT22;58753;49.440;11.126;2023-08-01T03:00:37;16.10;94.51
71096;DHT22;58753;49.440;11.126;2023-08-01T03:03:03;16.06;94.44
71096;DHT22;58753;49.440;11.126;2023-08-01T03:05:33;16.02;94.39
71096;DHT22;58753;49.440;11.126;2023-08-01T03:08:00;16.02;94.66
71096;DHT22;58753;49.440;11.126;2023-08-01T03:10:25;16.06;94.78
71096;DHT22;58753;49.440;11.126;2023-08-01T03:12:51;16.04;94.61
71096;DHT22;58753;49.440;11.126;2023-08-01T03:15:16;16.01;94.64
71096;DHT22;58753;49.440;11.126;2023-08-01T03:17:44;15.96;94.57
71096;DHT22;58753;49.440;11.126;2023-08-01T03:20:12;15.96;94.63
71096;DHT22;58753;49.440;11.126;2023-08-01T03:22:40;15.96;94.70
71096;DHT22;58753;49.440;11.126;2023-08-01T03:25:07;15.95;94.58
71096;DHT22;58753;49.440;11.126;2023-08-01T03:27:37;15.94;94.70
71096;DHT22;58753;49.440;11.126;2023-08-01T03:30:06;15.94;94.87
71096;DHT22;58753;49.440;11.126;2023-08-01T03:32:36;15.91;94.77
71096;DHT22;58753;49.440;11.126;2023-08-01T03:35:06;15.91;95.02
71096;DHT22;58753;49.440;11.126;2023-08-01T03:37:32;15.92;94.86
71096;DHT22;58753;49.440;11.126;2023-08-01T03:40:00;15.89;94.93
71096;DHT22;58753;49.440;11.126;2023-08-01T03:42:25;15.92;95.11
71096;DHT22;58753;49.440;11.126;2023-08-01T03:44:55;15.94;94.96
71096;DHT22;58753;49.440;11.126;2023-08-01T03:47:23;15.91;94.99
71096;DHT22;58753;49.440;11.126;2023-08-01T03:49:51;15.92;95.20
71096;DHT22;58753;49.440;11.126;2023-08-01T03:52:18;15.94;95.02
71096;DHT22;58753;49.440;11.126;2023-08-01T03:54:44;15.89;94.99
71096;DHT22;58753;49.440;11.126;2023-08-01T03:57:10;15.87;95.01
71096;DHT22;58753;49.440;11.126;2023-08-01T03:59:35;15.82;95.05
71096;DHT22;58753;49.440;11.126;2023-08-01T04:02:01;15.84;95.26
71096;DHT22;58753;49.440;11.126;2023-08-01T04:04:26;15.88;95.39
71096;DHT22;58753;49.440;11.126;2023-08-01T04:06:58;15.88;95.37
71096;DHT22;58753;49.440;11.126;2023-08-01T04:09:26;15.89;95.21
71096;DHT22;58753;49.440;11.126;2023-08-01T04:11:51;15.92;95.38
71096;DHT22;58753;49.440;11.126;2023-08-01T04:14:17;15.89;95.31
71096;DHT22;58753;49.440;11.126;2023-08-01T04:16:42;15.87;95.28
71096;DHT22;58753;49.440;11.126;2023-08-01T04:19:10;15.84;95.24
71096;DHT22;58753;49.440;11.126;2023-08-01T04:21:37;15.82;95.38
71096;DHT22;58753;49.440;11.126;2023-08-01T04:24:08;15.82;95.40
71096;DHT22;58753;49.440;11.126;2023-08-01T04:26:36;15.84;95.52
71096;DHT22;58753;49.440;11.126;2023-08-01T04:29:02;15.85;95.35
71096;DHT22;58753;49.440;11.126;2023-08-01T04:31:29;15.82;95.49
71096;DHT22;58753;49.440;11.126;2023-08-01T04:33:57;15.87;95.51
71096;DHT22;58753;49.440;11.126;2023-08-01T04:36:22;15.84;95.49
71096;DHT22;58753;49.440;11.126;2023-08-01T04:38:50;15.88;95.57
71096;DHT22;58753;49.440;11.126;2023-08-01T04:41:15;15.85;95.54
71096;DHT22;58753;49.440;11.126;2023-08-01T04:43:43;15.87;95.58
71096;DHT22;58753;49.440;11.126;2023-08-01T04:46:08;15.91;95.64
71096;DHT22;58753;49.440;11.126;2023-08-01T04:48:34;15.88;95.42
71096;DHT22;58753;49.440;11.126;2023-08-01T04:50:59;15.85;95.64
71096;DHT22;58753;49.440;11.126;2023-08-01T04:53:24;15.84;95.45
71096;DHT22;58753;49.440;11.126;2023-08-01T04:55:50;15.82;95.57
71096;DHT22;58753;49.440;11.126;2023-08-01T04:58:15;15.82;95.56
71096;DHT22;58753;49.440;11.126;2023-08-01T05:00:42;15.82;95.57
71096;DHT22;58753;49.440;11.126;2023-08-01T05:03:07;15.79;95.47
71096;DHT22;58753;49.440;11.126;2023-08-01T05:05:35;15.85;95.70
71096;DHT22;58753;49.440;11.126;2023-08-01T05:08:00;15.88;95.73
71096;DHT22;58753;49.440;11.126;2023-08-01T05:10:26;15.88;95.80
71096;DHT22;58753;49.440;11.126;2023-08-01T05:12:53;15.89;95.70
71096;DHT22;58753;49.440;11.126;2023-08-01T05:15:19;15.92;95.84
71096;DHT22;58753;49.440;11.126;2023-08-01T05:17:44;15.94;95.72
71096;DHT22;58753;49.440;11.126;2023-08-01T05:20:13;15.94;95.56
71096;DHT22;58753;49.440;11.126;2023-08-01T05:22:39;15.89;95.56
71096;DHT22;58753;49.440;11.126;2023-08-01T05:25:07;15.92;95.60
71096;DHT22;58753;49.440;11.126;2023-08-01T05:27:38;15.94;95.64
71096;DHT22;58753;49.440;11.126;2023-08-01T05:30:06;15.92;95.59
71096;DHT22;58753;49.440;11.126;2023-08-01T05:32:34;15.94;95.56
71096;DHT22;58753;49.440;11.126;2023-08-01T05:35:02;15.92;95.64
71096;DHT22;58753;49.440;11.126;2023-08-01T05:37:27;15.95;95.60
71096;DHT22;58753;49.440;11.126;2023-08-01T05:39:53;15.96;95.60
71096;DHT22;58753;49.440;11.126;2023-08-01T05:42:18;15.99;95.70
71096;DHT22;58753;49.440;11.126;2023-08-01T05:44:46;16.02;95.75
71096;DHT22;58753;49.440;11.126;2023-08-01T05:47:11;16.05;95.70
71096;DHT22;58753;49.440;11.126;2023-08-01T05:49:37;16.02;95.65
71096;DHT22;58753;49.440;11.126;2023-08-01T05:52:02;16.06;95.65
71096;DHT22;58753;49.440;11.126;2023-08-01T05:54:27;16.05;95.53
71096;DHT22;58753;49.440;11.126;2023-08-01T05:56:53;16.04;95.59
71096;DHT22;58753;49.440;11.126;2023-08-01T05:59:19;16.02;95.63
71096;DHT22;58753;49.440;11.126;2023-08-01T06:01:44;16.05;95.57
71096;DHT22;58753;49.440;11.126;2023-08-01T06:04:12;16.10;95.75
71096;DHT22;58753;49.440;11.126;2023-08-01T06:06:38;16.09;95.61
71096;DHT22;58753;49.440;11.126;2023-08-01T06:09:05;16.08;95.62
71096;DHT22;58753;49.440;11.126;2023-08-01T06:11:31;16.06;95.75
71096;DHT22;58753;49.440;11.126;2023-08-01T06:13:58;16.09;95.79
71096;DHT22;58753;49.440;11.126;2023-08-01T06:16:26;16.13;95.88
71096;DHT22;58753;49.440;11.126;2023-08-01T06:18:53;16.18;95.81
71096;DHT22;58753;49.440;11.126;2023-08-01T06:21:19;16.15;95.70
71096;DHT22;58753;49.440;11.126;2023-08-01T06:23:44;16.18;95.86
71096;DHT22;58753;49.440;11.126;2023-08-01T06:26:09;16.20;95.85
71096;DHT22;58753;49.440;11.126;2023-08-01T06:28:35;16.22;95.83
71096;DHT22;58753;49.440;11.126;2023-08-01T06:31:00;16.20;95.74
71096;DHT22;58753;49.440;11.126;2023-08-01T06:33:28;16.22;95.76
71096;DHT22;58753;49.440;11.126;2023-08-01T06:35:58;16.22;95.79
71096;DHT22;58753;49.440;11.126;2023-08-01T06:38:23;16.25;95.82
71096;DHT22;58753;49.440;11.126;2023-08-01T06:40:49;16.26;95.90
71096;DHT22;58753;49.440;11.126;2023-08-01T06:43:14;16.23;95.80
71096;DHT22;58753;49.440;11.126;2023-08-01T06:45:42;16.25;95.92
71096;DHT22;58753;49.440;11.126;2023-08-01T06:48:09;16.26;95.95
71096;DHT22;58753;49.440;11.126;2023-08-01T06:50:35;16.29;95.94
71096;DHT22;58753;49.440;11.126;2023-08-01T06:53:01;16.28;95.92
71096;DHT22;58753;49.440;11.126;2023-08-01T06:55:29;16.29;96.00
71096;DHT22;58753;49.440;11.126;2023-08-01T06:57:55;16.29;95.97
71096;DHT22;58753;49.440;11.126;2023-08-01T07:00:23;16.29;95.94
71096;DHT22;58753;49.440;11.126;2023-08-01T07:02:48;16.28;95.93
71096;DHT22;58753;49.440;11.126;2023-08-01T07:05:16;16.25;96.08
71096;DHT22;58753;49.440;11.126;2023-08-01T07:07:41;16.28;96.06
71096;DHT22;58753;49.440;11.126;2023-08-01T07:10:07;16.34;96.13
71096;DHT22;58753;49.440;11.126;2023-08-01T07:12:35;16.30;95.95
71096;DHT22;58753;49.440;11.126;2023-08-01T07:15:00;16.26;95.99
71096;DHT22;58753;49.440;11.126;2023-08-01T07:17:28;16.29;96.07
71096;DHT22;58753;49.440;11.126;2023-08-01T07:19:53;16.29;96.21
71096;DHT22;58753;49.440;11.126;2023-08-01T07:22:22;16.29;96.08
71096;DHT22;58753;49.440;11.126;2023-08-01T07:24:52;16.36;96.25
71096;DHT22;58753;49.440;11.126;2023-08-01T07:27:18;16.39;96.16
71096;DHT22;58753;49.440;11.126;2023-08-01T07:29:43;16.36;96.02
71096;DHT22;58753;49.440;11.126;2023-08-01T07:32:08;16.34;96.17
71096;DHT22;58753;49.440;11.126;2023-08-01T07:34:34;16.40;96.32
71096;DHT22;58753;49.440;11.126;2023-08-01T07:36:59;16.43;96.29
71096;DHT22;58753;49.440;11.126;2023-08-01T07:39:24;16.48;96.32
71096;DHT22;58753;49.440;11.126;2023-08-01T07:41:50;16.46;96.21
71096;DHT22;58753;49.440;11.126;2023-08-01T07:44:17;16.46;96.18
71096;DHT22;58753;49.440;11.126;2023-08-01T07:46:45;16.45;96.21
71096;DHT22;58753;49.440;11.126;2023-08-01T07:49:13;16.45;96.22
71096;DHT22;58753;49.440;11.126;2023-08-01T07:51:38;16.45;96.22
71096;DHT22;58753;49.440;11.126;2023-08-01T07:54:03;16.45;96.25
71096;DHT22;58753;49.440;11.126;2023-08-01T07:56:31;16.45;96.29
71096;DHT22;58753;49.440;11.126;2023-08-01T07:58:57;16.45;96.24
71096;DHT22;58753;49.440;11.126;2023-08-01T08:01:22;16.46;96.38
71096;DHT22;58753;49.440;11.126;2023-08-01T08:03:50;16.49;96.37
71096;DHT22;58753;49.440;11.126;2023-08-01T08:06:16;16.50;96.30
71096;DHT22;58753;49.440;11.126;2023-08-01T08:08:41;16.52;96.38
71096;DHT22;58753;49.440;11.126;2023-08-01T08:11:09;16.56;96.36
71096;DHT22;58753;49.440;11.126;2023-08-01T08:13:34;16.57;96.39
71096;DHT22;58753;49.440;11.126;2023-08-01T08:16:00;16.50;96.15
71096;DHT22;58753;49.440;11.126;2023-08-01T08:18:25;16.46;96.27
71096;DHT22;58753;49.440;11.126;2023-08-01T08:20:53;16.42;96.21
71096;DHT22;58753;49.440;11.126;2023-08-01T08:23:20;16.38;96.23
71096;DHT22;58753;49.440;11.126;2023-08-01T08:25:46;16.39;96.23
71096;DHT22;58753;49.440;11.126;2023-08-01T08:28:26;16.34;96.33
71096;DHT22;58753;49.440;11.126;2023-08-01T08:30:52;16.32;96.30
71096;DHT22;58753;49.440;11.126;2023-08-01T08:33:19;16.30;96.21
71096;DHT22;58753;49.440;11.126;2023-08-01T08:35:48;16.25;96.19
71096;DHT22;58753;49.440;11.126;2023-08-01T08:38:13;16.20;96.15
71096;DHT22;58753;49.440;11.126;2023-08-01T08:40:41;16.15;96.12
71096;DHT22;58753;49.440;11.126;2023-08-01T08:43:11;16.13;96.29
71096;DHT22;58753;49.440;11.126;2023-08-01T08:45:41;16.09;96.13
71096;DHT22;58753;49.440;11.126;2023-08-01T08:48:12;16.02;96.28
71096;DHT22;58753;49.440;11.126;2023-08-01T08:50:39;16.01;96.21
71096;DHT22;58753;49.440;11.126;2023-08-01T08:53:08;15.98;96.24
71096;DHT22;58753;49.440;11.126;2023-08-01T08:55:40;15.92;96.22
71096;DHT22;58753;49.440;11.126;2023-08-01T08:58:06;15.94;96.54
71096;DHT22;58753;49.440;11.126;2023-08-01T09:00:32;15.95;96.52
71096;DHT22;58753;49.440;11.126;2023-08-01T09:03:00;15.96;96.49
71096;DHT22;58753;49.440;11.126;2023-08-01T09:05:27;15.95;96.41
71096;DHT22;58753;49.440;11.126;2023-08-01T09:07:56;15.94;96.34
71096;DHT22;58753;49.440;11.126;2023-08-01T09:10:23;15.96;96.39
71096;DHT22;58753;49.440;11.126;2023-08-01T09:12:51;15.95;96.36
71096;DHT22;58753;49.440;11.126;2023-08-01T09:15:19;15.99;96.50
71096;DHT22;58753;49.440;11.126;2023-08-01T09:17:49;16.05;96.60
71096;DHT22;58753;49.440;11.126;2023-08-01T09:20:17;16.09;96.51
71096;DHT22;58753;49.440;11.126;2023-08-01T09:22:43;16.15;96.54
71096;DHT22;58753;49.440;11.126;2023-08-01T09:25:09;16.12;96.42
71096;DHT22;58753;49.440;11.126;2023-08-01T09:27:35;16.13;96.30
71096;DHT22;58753;49.440;11.126;2023-08-01T09:30:13;16.13;96.32
71096;DHT22;58753;49.440;11.126;2023-08-01T09:32:54;16.19;96.54
71096;DHT22;58753;49.440;11.126;2023-08-01T09:35:22;16.25;96.40
71096;DHT22;58753;49.440;11.126;2023-08-01T09:37:48;16.26;96.39
71096;DHT22;58753;49.440;11.126;2023-08-01T09:40:16;16.30;96.54
71096;DHT22;58753;49.440;11.126;2023-08-01T09:42:43;16.34;96.48
71096;DHT22;58753;49.440;11.126;2023-08-01T09:45:16;16.39;96.38
71096;DHT22;58753;49.440;11.126;2023-08-01T09:47:47;16.40;96.25
71096;DHT22;58753;49.440;11.126;2023-08-01T09:50:23;16.39;96.02
71096;DHT22;58753;49.440;11.126;2023-08-01T09:52:49;16.42;95.98
71096;DHT22;58753;49.440;11.126;2023-08-01T09:55:23;16.39;95.98
71096;DHT22;58753;49.440;11.126;2023-08-01T09:57:57;16.33;95.91
71096;DHT22;58753;49.440;11.126;2023-08-01T10:00:23;16.32;95.73
71096;DHT22;58753;49.440;11.126;2023-08-01T10:02:52;16.29;95.74
71096;DHT22;58753;49.440;11.126;2023-08-01T10:05:21;16.30;95.96
71096;DHT22;58753;49.440;11.126;2023-08-01T10:07:48;16.30;95.90
71096;DHT22;58753;49.440;11.126;2023-08-01T10:10:15;16.39;96.08
71096;DHT22;58753;49.440;11.126;2023-08-01T10:12:45;16.46;95.95
71096;DHT22;58753;49.440;11.126;2023-08-01T10:15:14;16.52;95.96
71096;DHT22;58753;49.440;11.126;2023-08-01T10:17:41;16.56;95.77
71096;DHT22;58753;49.440;11.126;2023-08-01T10:20:07;16.59;95.75
71096;DHT22;58753;49.440;11.126;2023-08-01T10:22:33;16.67;95.68
71096;DHT22;58753;49.440;11.126;2023-08-01T10:24:59;16.73;95.73
71096;DHT22;58753;49.440;11.126;2023-08-01T10:27:30;16.81;95.57
71096;DHT22;58753;49.440;11.126;2023-08-01T10:29:59;16.83;95.44
71096;DHT22;58753;49.440;11.126;2023-08-01T10:32:32;16.87;95.51
71096;DHT22;58753;49.440;11.126;2023-08-01T10:34:58;16.90;95.46
71096;DHT22;58753;49.440;11.126;2023-08-01T10:37:24;16.94;95.33
71096;DHT22;58753;49.440;11.126;2023-08-01T10:40:01;16.97;95.26
71096;DHT22;58753;49.440;11.126;2023-08-01T10:45:05;16.99;95.28
71096;DHT22;58753;49.440;11.126;2023-08-01T10:47:30;16.99;94.86
71096;DHT22;58753;49.440;11.126;2023-08-01T10:49:57;16.99;94.98
71096;DHT22;58753;49.440;11.126;2023-08-01T10:52:26;17.06;95.16
71096;DHT22;58753;49.440;11.126;2023-08-01T10:54:59;17.07;94.95
71096;DHT22;58753;49.440;11.126;2023-08-01T10:57:27;17.07;94.74
71096;DHT22;58753;49.440;11.126;2023-08-01T10:59:55;17.01;94.78
71096;DHT22;58753;49.440;11.126;2023-08-01T11:02:27;17.00;94.82
71096;DHT22;58753;49.440;11.126;2023-08-01T11:05:04;17.03;94.76
71096;DHT22;58753;49.440;11.126;2023-08-01T11:07:33;17.07;94.91
71096;DHT22;58753;49.440;11.126;2023-08-01T11:10:09;17.10;94.70
71096;DHT22;58753;49.440;11.126;2023-08-01T11:12:42;17.13;94.56
71096;DHT22;58753;49.440;11.126;2023-08-01T11:15:10;17.21;94.38
71096;DHT22;58753;49.440;11.126;2023-08-01T11:17:38;17.35;94.64
71096;DHT22;58753;49.440;11.126;2023-08-01T11:20:09;17.56;94.70
71096;DHT22;58753;49.440;11.126;2023-08-01T11:22:49;17.76;94.58
71096;DHT22;58753;49.440;11.126;2023-08-01T11:25:15;17.83;94.29
71096;DHT22;58753;49.440;11.126;2023-08-01T11:27:43;17.82;93.75
71096;DHT22;58753;49.440;11.126;2023-08-01T11:30:11;17.86;93.43
71096;DHT22;58753;49.440;11.126;2023-08-01T11:32:37;17.83;93.43
71096;DHT22;58753;49.440;11.126;2023-08-01T11:35:04;17.87;93.56
71096;DHT22;58753;49.440;11.126;2023-08-01T11:37:32;17.82;92.83
71096;DHT22;58753;49.440;11.126;2023-08-01T11:39:58;17.78;92.60
71096;DHT22;58753;49.440;11.126;2023-08-01T11:42:24;17.78;92.89
71096;DHT22;58753;49.440;11.126;2023-08-01T11:44:51;17.81;92.61
71096;DHT22;58753;49.440;11.126;2023-08-01T11:47:19;17.85;92.48
71096;DHT22;58753;49.440;11.126;2023-08-01T11:49:49;17.89;92.45
71096;DHT22;58753;49.440;11.126;2023-08-01T11:52:27;17.92;92.39
71096;DHT22;58753;49.440;11.126;2023-08-01T11:54:53;17.89;91.95
71096;DHT22;58753;49.440;11.126;2023-08-01T11:57:22;17.78;91.61
71096;DHT22;58753;49.440;11.126;2023-08-01T11:59:53;17.74;91.62
71096;DHT22;58753;49.440;11.126;2023-08-01T12:02:26;17.62;90.82
71096;DHT22;58753;49.440;11.126;2023-08-01T12:04:54;17.55;90.43
71096;DHT22;58753;49.440;11.126;2023-08-01T12:07:20;17.52;89.66
71096;DHT22;58753;49.440;11.126;2023-08-01T12:09:59;17.45;88.68
71096;DHT22;58753;49.440;11.126;2023-08-01T12:12:31;17.32;87.69
71096;DHT22;58753;49.440;11.126;2023-08-01T12:14:56;17.27;86.94
71096;DHT22;58753;49.440;11.126;2023-08-01T12:17:28;17.35;87.36
71096;DHT22;58753;49.440;11.126;2023-08-01T12:19:55;17.45;86.12
71096;DHT22;58753;49.440;11.126;2023-08-01T12:22:23;17.75;86.97
71096;DHT22;58753;49.440;11.126;2023-08-01T12:24:50;17.90;85.76
71096;DHT22;58753;49.440;11.126;2023-08-01T12:27:16;18.13;84.62
71096;DHT22;58753;49.440;11.126;2023-08-01T12:29:46;18.37;84.34
71096;DHT22;58753;49.440;11.126;2023-08-01T12:32:14;18.78;83.43
71096;DHT22;58753;49.440;11.126;2023-08-01T12:34:41;19.04;81.95
71096;DHT22;58753;49.440;11.126;2023-08-01T12:37:09;19.22;80.61
71096;DHT22;58753;49.440;11.126;2023-08-01T12:39:37;19.52;81.04
71096;DHT22;58753;49.440;11.126;2023-08-01T12:42:02;19.65;78.77
71096;DHT22;58753;49.440;11.126;2023-08-01T12:44:28;19.93;77.89
71096;DHT22;58753;49.440;11.126;2023-08-01T12:46:55;19.97;76.30
71096;DHT22;58753;49.440;11.126;2023-08-01T12:49:21;20.03;75.32
71096;DHT22;58753;49.440;11.126;2023-08-01T12:51:49;20.06;74.78
71096;DHT22;58753;49.440;11.126;2023-08-01T12:54:14;19.97;73.56
71096;DHT22;58753;49.440;11.126;2023-08-01T12:56:39;19.86;72.11
71096;DHT22;58753;49.440;11.126;2023-08-01T12:59:05;20.00;72.30
71096;DHT22;58753;49.440;11.126;2023-08-01T13:01:30;19.92;70.37
71096;DHT22;58753;49.440;11.126;2023-08-01T13:03:55;19.67;69.76
71096;DHT22;58753;49.440;11.126;2023-08-01T13:06:21;19.41;68.75
71096;DHT22;58753;49.440;11.126;2023-08-01T13:08:46;19.28;68.93
71096;DHT22;58753;49.440;11.126;2023-08-01T13:11:13;19.04;68.04
71096;DHT22;58753;49.440;11.126;2023-08-01T13:13:40;18.92;68.41
71096;DHT22;58753;49.440;11.126;2023-08-01T13:16:08;18.87;69.14
71096;DHT22;58753;49.440;11.126;2023-08-01T13:18:36;18.70;68.63
71096;DHT22;58753;49.440;11.126;2023-08-01T13:21:08;18.67;69.79
71096;DHT22;58753;49.440;11.126;2023-08-01T13:23:33;18.60;70.11
71096;DHT22;58753;49.440;11.126;2023-08-01T13:25:59;18.61;70.49
71096;DHT22;58753;49.440;11.126;2023-08-01T13:28:27;18.61;71.19
71096;DHT22;58753;49.440;11.126;2023-08-01T13:30:53;18.60;71.60
71096;DHT22;58753;49.440;11.126;2023-08-01T13:33:18;18.72;72.25
71096;DHT22;58753;49.440;11.126;2023-08-01T13:35:44;19.49;73.39
71096;DHT22;58753;49.440;11.126;2023-08-01T13:38:09;20.10;71.92
71096;DHT22;58753;49.440;11.126;2023-08-01T13:40:40;20.51;69.77
71096;DHT22;58753;49.440;11.126;2023-08-01T13:43:05;20.77;68.17
71096;DHT22;58753;49.440;11.126;2023-08-01T13:45:31;20.67;68.33
71096;DHT22;58753;49.440;11.126;2023-08-01T13:47:57;20.17;67.28
71096;DHT22;58753;49.440;11.126;2023-08-01T13:50:22;19.80;68.34
71096;DHT22;58753;49.440;11.126;2023-08-01T13:52:50;19.45;68.89
71096;DHT22;58753;49.440;11.126;2023-08-01T13:55:15;19.23;69.86
71096;DHT22;58753;49.440;11.126;2023-08-01T13:57:42;19.02;70.02
71096;DHT22;58753;49.440;11.126;2023-08-01T14:00:08;18.84;70.59
71096;DHT22;58753;49.440;11.126;2023-08-01T14:02:33;18.68;70.98
71096;DHT22;58753;49.440;11.126;2023-08-01T14:04:59;18.60;72.39
71096;DHT22;58753;49.440;11.126;2023-08-01T14:07:26;18.46;73.96
71096;DHT22;58753;49.440;11.126;2023-08-01T14:09:52;18.16;76.30
71096;DHT22;58753;49.440;11.126;2023-08-01T14:12:18;17.74;76.91
71096;DHT22;58753;49.440;11.126;2023-08-01T14:14:44;17.55;78.77
71096;DHT22;58753;49.440;11.126;2023-08-01T14:17:12;17.54;79.71
71096;DHT22;58753;49.440;11.126;2023-08-01T14:19:40;17.54;80.48
71096;DHT22;58753;49.440;11.126;2023-08-01T14:22:05;17.55;81.78
71096;DHT22;58753;49.440;11.126;2023-08-01T14:24:33;17.48;82.12
71096;DHT22;58753;49.440;11.126;2023-08-01T14:26:58;17.59;83.28
71096;DHT22;58753;49.440;11.126;2023-08-01T14:29:24;17.72;83.17
71096;DHT22;58753;49.440;11.126;2023-08-01T14:31:51;17.99;84.25
71096;DHT22;58753;49.440;11.126;2023-08-01T14:34:16;18.07;83.43
71096;DHT22;58753;49.440;11.126;2023-08-01T14:36:42;18.09;83.19
71096;DHT22;58753;49.440;11.126;2023-08-01T14:39:07;18.05;83.77
71096;DHT22;58753;49.440;11.126;2023-08-01T14:41:32;18.02;83.42
71096;DHT22;58753;49.440;11.126;2023-08-01T14:43:59;18.13;84.07
71096;DHT22;58753;49.440;11.126;2023-08-01T14:46:26;18.20;83.99
71096;DHT22;58753;49.440;11.126;2023-08-01T14:48:52;18.25;83.59
71096;DHT22;58753;49.440;11.126;2023-08-01T14:51:17;18.26;83.70
71096;DHT22;58753;49.440;11.126;2023-08-01T14:53:43;18.26;83.35
71096;DHT22;58753;49.440;11.126;2023-08-01T14:56:08;18.27;83.42
71096;DHT22;58753;49.440;11.126;2023-08-01T14:58:34;18.32;83.46
71096;DHT22;58753;49.440;11.126;2023-08-01T15:01:05;18.64;84.27
71096;DHT22;58753;49.440;11.126;2023-08-01T15:03:33;19.14;84.13
71096;DHT22;58753;49.440;11.126;2023-08-01T15:06:05;19.63;83.48
71096;DHT22;58753;49.440;11.126;2023-08-01T15:08:31;20.07;82.39
71096;DHT22;58753;49.440;11.126;2023-08-01T15:10:56;20.18;80.32
71096;DHT22;58753;49.440;11.126;2023-08-01T15:13:24;20.40;78.51
71096;DHT22;58753;49.440;11.126;2023-08-01T15:15:49;20.58;78.30
71096;DHT22;58753;49.440;11.126;2023-08-01T15:18:17;20.77;77.77